Time;durP1;ratioP1;P1;durP2;ratioP2;P2;SDS_P1;SDS_P2;PMS_P1;PMS_P2;Temp;Humidity;BMP_temperature;BMP_pressure;BME280_temperature;BME280_humidity;BME280_pressure;Samples;Min_cycle;Max_cycle;Signal;HPM_P1;HPM_P2
2022/02/05 00:01:28;;;;;;;9.00;1.90;;;;;;;8.38;56.47;101630.19;4974153;28;20030;-57
2022/02/05 00:04:00;;;;;;;13.95;2.10;;;;;;;8.32;57.31;101638.66;4979026;28;20584;-56
2022/02/05 00:06:31;;;;;;;9.95;2.20;;;;;;;8.29;57.33;101638.53;4971022;28;20520;-56
2022/02/05 00:38:37;;;;;;;10.63;2.23;;;;;;;8.10;57.82;101659.50;4979791;28;20413;-57
2022/02/05 00:41:14;;;;;;;9.65;1.80;;;;;;;8.14;57.48;101658.75;4982917;28;20286;-56
2022/02/05 00:43:52;;;;;;;9.57;2.13;;;;;;;8.08;57.50;101667.22;4980305;28;20044;-56
2022/02/05 00:46:21;;;;;;;14.25;2.17;;;;;;;8.05;57.97;101676.63;4974163;28;20037;-57
2022/02/05 00:48:48;;;;;;;10.02;1.83;;;;;;;8.05;57.68;101676.63;4978919;28;20195;-56
2022/02/05 00:51:19;;;;;;;8.80;1.58;;;;;;;8.00;57.89;101683.34;4981182;28;20052;-57
2022/02/05 00:53:48;;;;;;;10.02;2.10;;;;;;;7.93;57.89;101679.63;4974237;28;20054;-55
2022/02/05 00:56:36;;;;;;;12.82;2.20;;;;;;;7.90;57.94;101689.91;4982516;28;20034;-56
2022/02/05 00:59:00;;;;;;;10.77;1.90;;;;;;;7.99;57.80;101690.25;4978745;28;20362;-56
2022/02/05 01:01:25;;;;;;;9.38;1.80;;;;;;;7.88;58.10;101685.47;4966788;28;20366;-56
2022/02/05 01:03:50;;;;;;;8.80;1.70;;;;;;;8.02;57.75;101689.47;4979797;28;20528;-57
2022/02/05 01:06:16;;;;;;;11.63;2.17;;;;;;;8.00;57.89;101681.63;4982319;28;20072;-56
2022/02/05 01:08:43;;;;;;;7.57;1.83;;;;;;;7.97;57.83;101693.63;4979267;28;20038;-56
2022/02/05 01:11:10;;;;;;;9.13;1.60;;;;;;;7.89;57.95;101693.34;4968329;28;20444;-57
2022/02/05 01:13:36;;;;;;;9.93;1.92;;;;;;;7.91;58.48;101709.88;4982682;28;20564;-57
2022/02/05 01:16:10;;;;;;;14.00;1.80;;;;;;;7.89;58.68;101711.50;4979669;28;20773;-57
2022/02/05 01:18:39;;;;;;;11.65;1.95;;;;;;;7.93;58.90;101707.34;4969954;28;20349;-56
2022/02/05 01:21:25;;;;;;;10.15;1.60;;;;;;;8.01;59.37;101717.16;4981285;28;21754;-55
2022/02/05 01:23:57;;;;;;;12.82;2.00;;;;;;;8.02;58.85;101721.53;4972594;28;20053;-57
2022/02/05 01:26:31;;;;;;;10.73;1.92;;;;;;;8.05;58.74;101718.19;4975283;28;20556;-58
2022/02/05 01:29:09;;;;;;;11.57;1.90;;;;;;;8.07;57.97;101719.09;4984529;28;20046;-57
2022/02/05 01:31:46;;;;;;;11.18;2.10;;;;;;;8.04;58.00;101724.19;4983082;28;20050;-56
2022/02/05 01:51:00;;;;;;;15.27;2.13;;;;;;;7.79;59.10;101739.66;4979379;28;20111;-56
2022/02/05 02:04:49;;;;;;;17.45;2.55;;;;;;;7.76;59.55;101768.97;4982768;28;20057;-56
2022/02/05 02:07:12;;;;;;;15.45;2.17;;;;;;;7.82;59.52;101783.91;4974202;28;20049;-57
2022/02/05 02:12:13;;;;;;;10.70;1.90;;;;;;;7.80;59.84;101791.66;4976237;28;20521;-59
2022/02/05 02:15:00;;;;;;;10.13;2.17;;;;;;;7.73;60.30;101784.44;4973729;28;20047;-57
2022/02/05 02:25:57;;;;;;;12.05;2.25;;;;;;;7.80;60.17;101782.97;4931733;28;20191;-59
2022/02/05 02:28:36;;;;;;;11.63;2.28;;;;;;;7.70;60.45;101794.69;4975345;28;20607;-61
2022/02/05 02:31:07;;;;;;;9.35;2.13;;;;;;;7.72;60.87;101806.03;4980394;28;20046;-56
2022/02/05 02:33:38;;;;;;;11.20;2.10;;;;;;;7.71;60.53;101801.66;4982386;28;20057;-56
2022/02/05 02:36:09;;;;;;;12.60;1.90;;;;;;;7.69;60.87;101814.56;4966488;28;20393;-56
2022/02/05 02:38:44;;;;;;;11.25;1.95;;;;;;;7.75;60.35;101814.81;4974782;28;20041;-56
2022/02/05 02:41:19;;;;;;;8.95;1.70;;;;;;;7.72;60.39;101804.31;4984072;28;20049;-57
2022/02/05 02:43:46;;;;;;;11.88;1.90;;;;;;;7.64;60.14;101808.31;4978001;28;20053;-57
2022/02/05 02:46:11;;;;;;;13.95;2.15;;;;;;;7.67;59.80;101811.03;4984433;28;20044;-56
2022/02/05 02:48:37;;;;;;;9.40;1.85;;;;;;;7.69;59.77;101814.56;4969698;28;20266;-57
2022/02/05 02:59:20;;;;;;;11.30;2.10;;;;;;;7.59;60.93;101816.75;4972018;28;19943;-56
2022/02/05 03:01:45;;;;;;;13.27;2.20;;;;;;;7.72;60.78;101819.00;4981026;28;20065;-57
2022/02/05 03:04:11;;;;;;;15.75;1.95;;;;;;;7.83;60.16;101830.69;4973452;28;21751;-56
2022/02/05 03:06:36;;;;;;;10.50;1.80;;;;;;;7.78;60.05;101828.75;4959910;28;20540;-56
2022/02/05 03:09:02;;;;;;;12.85;1.73;;;;;;;7.72;60.45;101838.06;4985073;28;20450;-56
2022/02/05 03:11:27;;;;;;;10.65;1.95;;;;;;;7.69;60.83;101837.91;4979897;28;20038;-56
2022/02/05 03:13:53;;;;;;;9.88;2.13;;;;;;;7.72;60.86;101840.66;4965430;28;20054;-56
2022/02/05 03:16:28;;;;;;;10.60;2.33;;;;;;;7.72;60.88;101847.56;4981023;28;20660;-56
2022/02/05 03:21:21;;;;;;;13.90;2.30;;;;;;;7.83;60.85;101842.78;4981566;28;20133;-56
2022/02/05 03:23:46;;;;;;;13.82;2.20;;;;;;;7.74;60.80;101844.19;4976798;28;20580;-58
2022/02/05 03:26:12;;;;;;;14.55;2.10;;;;;;;7.66;61.12;101845.59;4984080;28;20074;-57
2022/02/05 03:28:37;;;;;;;13.82;2.20;;;;;;;7.71;61.51;101840.59;4971989;28;20414;-57
2022/02/05 03:31:03;;;;;;;12.57;2.10;;;;;;;7.68;61.25;101843.94;4978459;28;20188;-58
2022/02/05 03:33:28;;;;;;;10.98;2.15;;;;;;;7.70;61.43;101852.69;4977056;28;20119;-58
2022/02/05 03:35:54;;;;;;;12.65;2.00;;;;;;;7.60;61.33;101852.25;4982845;28;20150;-57
2022/02/05 03:38:19;;;;;;;10.38;1.83;;;;;;;7.67;61.47;101859.47;4976624;28;20070;-57
2022/02/05 03:40:45;;;;;;;14.05;2.13;;;;;;;7.52;61.96;101854.53;4975301;28;20072;-58
2022/02/05 03:43:10;;;;;;;14.23;2.30;;;;;;;7.49;61.79;101859.59;4982337;28;20130;-57
2022/02/05 03:45:35;;;;;;;12.43;2.33;;;;;;;7.48;61.96;101851.75;4978055;28;20042;-60
2022/02/05 03:48:01;;;;;;;11.95;2.20;;;;;;;7.39;62.26;101866.91;4980923;28;20452;-57
2022/02/05 03:50:27;;;;;;;12.13;2.00;;;;;;;7.50;61.61;101863.09;4954895;28;20396;-57
2022/02/05 03:52:53;;;;;;;11.77;2.03;;;;;;;7.57;61.47;101865.97;4980246;28;20412;-59
2022/02/05 03:55:18;;;;;;;13.10;2.20;;;;;;;7.49;61.39;101872.56;4978075;28;20761;-60
2022/02/05 03:57:44;;;;;;;10.10;2.15;;;;;;;7.49;61.36;101874.28;4983109;28;20042;-56
2022/02/05 04:00:10;;;;;;;16.92;2.30;;;;;;;7.44;61.54;101876.66;4978130;28;20026;-57
2022/02/05 04:02:37;;;;;;;15.15;1.98;;;;;;;7.38;61.80;101870.34;4951398;28;20069;-58
2022/02/05 04:05:02;;;;;;;12.30;2.30;;;;;;;7.45;61.25;101882.75;4983859;28;20582;-60
2022/02/05 04:07:31;;;;;;;13.45;2.13;;;;;;;7.53;61.24;101877.06;4978907;28;20033;-59
2022/02/05 04:10:00;;;;;;;10.55;1.98;;;;;;;7.52;61.17;101883.06;4982421;28;20184;-59
2022/02/05 04:17:53;;;;;;;13.55;1.88;;;;;;;7.46;61.70;101897.50;4978543;28;20057;-59
2022/02/05 04:20:19;;;;;;;11.07;2.20;;;;;;;7.38;62.11;101898.91;4962736;28;20050;-58
2022/02/05 04:22:44;;;;;;;11.27;1.83;;;;;;;7.44;61.62;101909.53;4978150;28;20151;-57
2022/02/05 04:25:11;;;;;;;8.88;1.80;;;;;;;7.44;61.92;101899.16;4969095;28;20046;-58
2022/02/05 04:27:36;;;;;;;13.00;2.15;;;;;;;7.46;61.67;101905.28;4976325;28;20046;-59
2022/02/05 04:30:01;;;;;;;12.75;2.13;;;;;;;7.47;61.98;101914.84;4966969;28;20115;-58
2022/02/05 04:32:27;;;;;;;11.82;2.40;;;;;;;7.60;61.72;101902.44;4969242;28;20161;-59
2022/02/05 04:34:52;;;;;;;14.27;2.10;;;;;;;7.58;62.06;101908.38;4983930;28;20061;-57
2022/02/05 04:37:21;;;;;;;13.60;1.80;;;;;;;7.55;61.65;101916.06;4974410;28;20033;-57
2022/02/05 04:39:53;;;;;;;11.40;2.00;;;;;;;7.56;61.46;101920.44;4979845;28;20041;-58
2022/02/05 04:42:25;;;;;;;9.55;1.70;;;;;;;7.69;61.32;101918.38;4978645;28;20557;-57
2022/02/05 05:03:39;;;;;;;10.48;2.00;;;;;;;7.73;61.21;101928.09;4974295;28;20062;-57
2022/02/05 05:09:05;;;;;;;10.33;2.00;;;;;;;7.62;61.54;101931.91;4975110;28;20491;-58
2022/02/05 05:19:31;;;;;;;12.40;2.10;;;;;;;7.34;61.72;101950.63;4952870;28;20425;-58
2022/02/05 05:22:01;;;;;;;13.13;2.00;;;;;;;7.32;61.81;101930.63;4959668;28;20034;-58
2022/02/05 05:24:26;;;;;;;11.77;1.77;;;;;;;7.30;61.84;101946.13;4968783;28;20112;-57
2022/02/05 05:26:52;;;;;;;9.10;1.90;;;;;;;7.29;61.41;101936.59;4978259;28;20409;-58
2022/02/05 05:29:18;;;;;;;7.55;2.08;;;;;;;7.25;61.55;101931.19;4964916;28;20099;-58
2022/02/05 05:31:44;;;;;;;15.23;2.72;;;;;;;7.23;61.77;101949.28;4980926;28;20603;-59
2022/02/05 05:34:09;;;;;;;14.77;1.90;;;;;;;7.23;61.71;101943.22;4979273;28;20042;-57
2022/02/05 05:36:34;;;;;;;9.07;2.00;;;;;;;7.23;61.64;101938.91;4975713;28;20046;-58
2022/02/05 05:39:03;;;;;;;8.13;1.90;;;;;;;7.32;61.34;101948.78;4983937;28;20715;-58
2022/02/05 05:41:29;;;;;;;9.77;2.13;;;;;;;7.24;61.58;101944.97;4963341;28;20042;-57
2022/02/05 05:46:44;;;;;;;9.20;2.08;;;;;;;7.18;62.17;101945.59;4969546;28;20496;-58
2022/02/05 05:49:22;;;;;;;9.07;1.65;;;;;;;7.13;62.05;101946.22;4982246;28;20038;-59
2022/02/05 05:51:48;;;;;;;19.65;2.40;;;;;;;7.25;61.68;101946.75;4978676;28;20370;-57
2022/02/05 05:54:14;;;;;;;13.43;2.38;;;;;;;7.19;61.71;101947.38;4980987;28;20041;-58
2022/02/05 05:56:42;;;;;;;10.95;2.30;;;;;;;7.09;61.98;101944.28;4973814;28;20046;-59
2022/02/05 05:59:07;;;;;;;8.20;2.00;;;;;;;7.11;61.74;101953.03;4981059;28;20604;-58
2022/02/05 06:01:33;;;;;;;14.57;2.20;;;;;;;7.04;62.26;101953.56;4983827;28;20042;-59
2022/02/05 06:03:58;;;;;;;12.05;2.22;;;;;;;7.04;62.19;101949.28;4974401;28;20081;-58
2022/02/05 06:06:23;;;;;;;14.52;2.67;;;;;;;7.04;62.24;101948.41;4973826;28;20129;-59
2022/02/05 06:08:49;;;;;;;11.02;2.20;;;;;;;6.96;62.08;101947.16;4978403;28;20053;-57
2022/02/05 06:11:15;;;;;;;11.75;2.08;;;;;;;6.88;62.59;101950.31;4979727;28;21220;-58
2022/02/05 06:13:40;;;;;;;10.73;2.28;;;;;;;6.90;63.08;101951.25;4979704;28;20061;-57
2022/02/05 06:16:10;;;;;;;7.80;2.40;;;;;;;6.89;63.14;101952.06;4985280;28;20390;-58
2022/02/05 06:18:35;;;;;;;12.77;2.28;;;;;;;6.92;63.50;101960.00;4982546;28;20280;-58
2022/02/05 06:21:01;;;;;;;8.90;2.20;;;;;;;6.96;63.69;101970.47;4983280;28;20472;-58
2022/02/05 06:23:26;;;;;;;8.10;2.13;;;;;;;7.01;63.28;101969.91;4962680;28;20797;-57
2022/02/05 06:25:52;;;;;;;12.77;2.22;;;;;;;7.05;63.30;101965.72;4980287;28;20467;-58
2022/02/05 06:28:18;;;;;;;10.20;2.03;;;;;;;7.06;62.95;101964.91;4984006;28;20465;-58
2022/02/05 06:30:44;;;;;;;10.00;2.13;;;;;;;7.10;63.20;101970.31;4977951;28;20056;-57
2022/02/05 06:33:09;;;;;;;13.85;2.17;;;;;;;7.14;62.99;101968.72;4963925;28;20037;-57
2022/02/05 06:35:35;;;;;;;11.70;2.42;;;;;;;7.14;63.00;101972.19;4980933;28;20436;-58
2022/02/05 06:38:00;;;;;;;9.98;2.20;;;;;;;7.13;62.65;101967.84;4982817;28;20034;-58
2022/02/05 06:40:26;;;;;;;11.88;2.15;;;;;;;7.19;62.95;101959.47;4974303;28;20438;-60
2022/02/05 06:42:51;;;;;;;10.13;1.90;;;;;;;7.23;62.52;101969.13;4978272;28;20058;-57
2022/02/05 06:45:17;;;;;;;12.25;2.13;;;;;;;7.24;62.77;101979.59;4979925;28;20041;-58
2022/02/05 06:47:42;;;;;;;15.35;2.67;;;;;;;7.33;62.75;101973.91;4979444;28;20050;-56
2022/02/05 06:50:08;;;;;;;12.35;2.20;;;;;;;7.38;62.58;101979.31;4975134;28;20108;-58
2022/02/05 06:52:34;;;;;;;14.48;2.53;;;;;;;7.28;62.82;101978.91;4970034;28;20204;-58
2022/02/05 06:55:00;;;;;;;18.98;2.83;;;;;;;7.29;62.84;101979.78;4970802;28;20521;-59
2022/02/05 06:57:25;;;;;;;11.77;2.00;;;;;;;7.21;63.13;101987.22;4968540;28;20053;-59
2022/02/05 06:59:51;;;;;;;8.63;2.10;;;;;;;7.15;63.23;101989.53;4981865;28;20160;-59
2022/02/05 07:02:17;;;;;;;13.65;2.28;;;;;;;7.20;63.14;101995.81;4979247;28;20602;-58
2022/02/05 07:04:43;;;;;;;9.70;2.35;;;;;;;7.20;63.02;102007.88;4974611;28;22562;-58
2022/02/05 07:07:08;;;;;;;9.82;2.55;;;;;;;7.23;63.07;101995.06;4975034;28;20449;-59
2022/02/05 07:09:34;;;;;;;15.02;2.53;;;;;;;7.21;62.91;101994.09;4968527;28;20035;-59
2022/02/05 07:12:00;;;;;;;9.38;2.00;;;;;;;7.19;62.70;102000.97;4977692;28;21132;-60
2022/02/05 07:14:39;;;;;;;13.20;2.20;;;;;;;7.26;62.49;102001.28;4970810;28;20046;-58
2022/02/05 07:17:14;;;;;;;12.23;2.13;;;;;;;7.33;62.33;102005.03;4983535;28;20041;-58
2022/02/05 07:22:08;;;;;;;7.55;2.00;;;;;;;7.34;62.29;102015.47;4975244;28;20061;-59
2022/02/05 07:24:50;;;;;;;10.70;2.10;;;;;;;7.30;62.39;102016.19;4972788;28;20720;-57
2022/02/05 07:30:00;;;;;;;9.77;2.15;;;;;;;7.24;62.73;102023.69;4976912;28;20563;-57
2022/02/05 07:32:26;;;;;;;14.00;2.30;;;;;;;7.21;62.66;102030.41;4969309;28;20049;-59
2022/02/05 07:34:51;;;;;;;8.90;2.00;;;;;;;7.24;62.61;102033.16;4985278;28;20042;-58
2022/02/05 07:37:17;;;;;;;17.80;2.60;;;;;;;7.18;63.26;102028.59;4980105;28;20042;-59
2022/02/05 07:39:47;;;;;;;13.13;2.08;;;;;;;7.18;63.12;102040.66;4969870;28;20057;-58
2022/02/05 07:42:13;;;;;;;13.50;2.55;;;;;;;7.23;63.14;102040.06;4979848;28;20042;-58
2022/02/05 07:44:39;;;;;;;7.53;2.08;;;;;;;7.23;62.97;102040.06;4971907;28;20437;-58
2022/02/05 07:47:05;;;;;;;13.77;2.10;;;;;;;7.20;63.38;102039.91;4967460;28;20045;-59
2022/02/05 07:49:37;;;;;;;12.80;2.35;;;;;;;7.23;63.46;102034.88;4981504;28;20046;-58
2022/02/05 07:52:04;;;;;;;7.35;1.90;;;;;;;7.34;63.02;102035.34;4978896;28;20126;-60
2022/02/05 07:54:29;;;;;;;10.75;2.20;;;;;;;7.38;63.04;102032.06;4971097;28;20054;-58
2022/02/05 07:57:01;;;;;;;16.50;2.50;;;;;;;7.40;63.12;102027.84;4987449;28;20096;-58
2022/02/05 07:59:27;;;;;;;16.50;2.70;;;;;;;7.47;63.09;102026.41;4978869;28;20397;-58
2022/02/05 08:01:52;;;;;;;14.27;2.25;;;;;;;7.55;62.73;102019.84;4978855;28;20046;-58
2022/02/05 08:04:18;;;;;;;13.25;2.20;;;;;;;7.57;62.45;102020.78;4973981;28;20108;-57
2022/02/05 08:06:45;;;;;;;14.45;2.20;;;;;;;7.63;62.50;102015.84;4958407;28;20331;-56
2022/02/05 08:09:20;;;;;;;13.55;2.33;;;;;;;7.74;62.24;102022.44;4969194;28;20522;-58
2022/02/05 08:12:06;;;;;;;7.28;1.95;;;;;;;7.79;62.20;102020.03;4975171;28;20072;-59
2022/02/05 08:14:35;;;;;;;14.75;2.15;;;;;;;7.85;61.68;102020.28;4972559;28;20058;-57
2022/02/05 08:17:04;;;;;;;13.65;2.28;;;;;;;7.92;61.80;102024.91;4977253;28;20463;-58
2022/02/05 08:19:29;;;;;;;12.77;1.88;;;;;;;8.04;61.24;102018.53;4980232;28;20045;-58
2022/02/05 08:21:55;;;;;;;12.05;2.20;;;;;;;8.16;60.58;102025.94;4982600;28;20446;-57
2022/02/05 08:24:20;;;;;;;12.20;2.00;;;;;;;8.32;60.52;102019.69;4974078;28;20052;-57
2022/02/05 08:26:45;;;;;;;10.18;2.08;;;;;;;8.50;59.90;102025.63;4976129;28;20042;-59
2022/02/05 08:29:13;;;;;;;13.10;2.13;;;;;;;8.60;59.25;102017.34;4975846;28;20061;-58
2022/02/05 08:31:39;;;;;;;8.75;2.10;;;;;;;8.67;59.26;102018.47;4964590;28;20050;-57
2022/02/05 08:34:04;;;;;;;11.93;2.03;;;;;;;8.73;59.06;102024.81;4959450;28;20628;-59
2022/02/05 08:36:38;;;;;;;10.45;1.98;;;;;;;8.87;58.59;102033.16;4968426;28;20061;-57
2022/02/05 08:39:03;;;;;;;9.27;1.70;;;;;;;8.91;58.15;102042.84;4975965;28;20224;-58
2022/02/05 08:41:29;;;;;;;12.73;1.90;;;;;;;8.97;58.28;102043.06;4976164;28;20038;-57
2022/02/05 08:43:54;;;;;;;13.55;2.00;;;;;;;9.02;58.10;102048.47;4974506;28;20286;-58
2022/02/05 08:46:20;;;;;;;14.20;2.10;;;;;;;9.09;58.10;102061.75;4971358;28;20052;-57
2022/02/05 08:48:45;;;;;;;12.25;1.60;;;;;;;9.13;58.66;102060.16;4971778;28;20136;-58
2022/02/05 08:51:13;;;;;;;13.07;2.35;;;;;;;9.24;58.25;102064.94;4962561;28;20069;-57
2022/02/05 08:53:39;;;;;;;12.18;2.10;;;;;;;9.32;57.66;102068.72;4977038;28;20050;-57
2022/02/05 08:56:04;;;;;;;10.52;2.00;;;;;;;9.40;57.54;102078.50;4980430;28;20764;-58
2022/02/05 08:58:30;;;;;;;12.98;2.20;;;;;;;9.44;57.27;102088.22;4965318;28;20038;-57
2022/02/05 09:01:17;;;;;;;11.43;1.83;;;;;;;9.41;57.21;102081.19;4977475;28;20117;-58
2022/02/05 09:03:58;;;;;;;7.88;1.80;;;;;;;9.67;57.08;102095.16;4974348;28;20350;-57
2022/02/05 09:06:31;;;;;;;16.17;2.45;;;;;;;9.88;55.93;102082.91;4973565;28;20045;-55
2022/02/05 09:09:59;;;;;;;11.63;2.10;;;;;;;9.98;55.38;102087.63;4945226;28;20351;-58
2022/02/05 09:12:01;;;;;;;12.77;2.00;;;;;;;10.14;55.01;102083.81;4967749;28;20465;-58
2022/02/05 09:14:33;;;;;;;10.40;1.98;;;;;;;10.24;55.39;102079.84;4955172;28;20302;-58
2022/02/05 09:16:59;;;;;;;15.77;2.30;;;;;;;10.19;55.22;102074.44;4981373;28;20098;-57
2022/02/05 09:19:24;;;;;;;11.20;1.83;;;;;;;10.27;54.42;102077.31;4978629;28;20086;-57
2022/02/05 09:21:50;;;;;;;11.88;2.10;;;;;;;10.35;54.92;102081.97;4975002;28;20151;-56
2022/02/05 09:24:15;;;;;;;7.03;1.77;;;;;;;10.27;54.31;102070.41;4975269;28;20050;-57
2022/02/05 09:26:44;;;;;;;13.73;2.40;;;;;;;10.24;54.29;102077.25;4972724;28;20069;-56
2022/02/05 09:29:19;;;;;;;13.32;2.05;;;;;;;10.26;54.68;102071.22;4977919;28;20116;-58
2022/02/05 09:31:44;;;;;;;12.95;1.80;;;;;;;10.27;54.56;102069.50;4970906;28;20443;-57
2022/02/05 09:34:10;;;;;;;14.38;2.13;;;;;;;10.26;54.87;102066.00;4982559;28;20493;-58
2022/02/05 09:36:39;;;;;;;17.40;2.17;;;;;;;9.97;55.00;102059.78;4969470;28;20221;-56
2022/02/05 09:39:04;;;;;;;10.10;1.92;;;;;;;9.96;54.79;102060.63;4963791;28;20330;-58
2022/02/05 09:41:30;;;;;;;13.40;2.05;;;;;;;10.03;53.92;102049.56;4978291;28;20585;-58
2022/02/05 09:43:55;;;;;;;13.93;1.83;;;;;;;10.24;54.05;102059.00;4969663;28;20084;-57
2022/02/05 09:46:21;;;;;;;7.80;2.03;;;;;;;10.16;54.98;102058.69;4979781;28;20050;-57
2022/02/05 09:48:48;;;;;;;12.60;2.15;;;;;;;10.27;54.83;102059.97;4978042;28;20053;-57
2022/02/05 09:51:19;;;;;;;13.75;2.10;;;;;;;10.25;54.75;102055.53;4980119;28;20191;-59
2022/02/05 09:53:48;;;;;;;11.52;2.30;;;;;;;10.35;53.88;102055.91;4976271;28;20105;-58
2022/02/05 09:56:14;;;;;;;12.85;1.77;;;;;;;10.45;53.98;102054.47;4978950;28;20050;-58
2022/02/05 09:58:39;;;;;;;16.45;1.95;;;;;;;10.26;53.76;102063.41;4961167;28;20061;-59
2022/02/05 10:01:11;;;;;;;11.68;2.20;;;;;;;10.42;53.69;102055.28;4977795;28;20544;-58
2022/02/05 10:03:37;;;;;;;14.32;2.15;;;;;;;10.50;54.06;102059.00;4981456;28;20619;-58
2022/02/05 10:06:12;;;;;;;12.32;1.83;;;;;;;10.60;53.16;102056.72;4973307;28;20754;-59
2022/02/05 10:08:40;;;;;;;14.73;2.35;;;;;;;10.84;53.36;102050.53;4971898;28;20292;-58
2022/02/05 10:11:06;;;;;;;12.65;2.30;;;;;;;11.07;52.86;102059.06;4982248;28;20041;-59
2022/02/05 10:13:32;;;;;;;10.50;1.98;;;;;;;11.04;51.81;102052.88;4982226;28;20161;-58
2022/02/05 10:15:58;;;;;;;8.25;1.60;;;;;;;10.97;52.60;102054.41;4981594;28;20123;-59
2022/02/05 10:18:27;;;;;;;8.82;1.77;;;;;;;11.05;51.43;102049.41;4974193;28;20132;-59
2022/02/05 10:20:54;;;;;;;10.93;2.10;;;;;;;11.09;51.44;102033.91;4978009;28;20054;-58
2022/02/05 10:23:20;;;;;;;14.52;2.00;;;;;;;11.12;52.23;102036.59;4978292;28;20051;-57
2022/02/05 10:25:53;;;;;;;13.82;2.15;;;;;;;11.25;51.47;102046.56;4980708;28;20041;-58
2022/02/05 10:28:18;;;;;;;11.00;2.05;;;;;;;11.12;51.83;102044.41;4970866;28;20034;-56
2022/02/05 10:30:51;;;;;;;12.73;2.00;;;;;;;11.14;51.55;102055.81;4978252;28;20069;-57
2022/02/05 10:33:32;;;;;;;10.77;1.90;;;;;;;11.31;51.50;102043.22;4960892;28;20140;-57
2022/02/05 10:36:29;;;;;;;10.25;1.80;;;;;;;11.21;51.52;102052.53;4967439;28;20053;-58
2022/02/05 10:39:11;;;;;;;15.15;2.30;;;;;;;10.95;51.85;102048.25;4980799;28;20049;-58
2022/02/05 10:44:27;;;;;;;14.60;2.30;;;;;;;10.68;52.31;102040.44;4945446;28;20038;-60
2022/02/05 10:46:56;;;;;;;16.00;2.15;;;;;;;10.50;51.97;102039.88;4982612;28;20072;-58
2022/02/05 10:49:48;;;;;;;10.93;2.08;;;;;;;10.66;51.89;102042.13;4983084;28;20045;-58
2022/02/05 10:52:24;;;;;;;11.50;2.20;;;;;;;10.45;51.63;102044.06;4982128;28;20422;-58
2022/02/05 10:54:57;;;;;;;13.55;2.20;;;;;;;10.39;51.92;102047.34;4975939;28;20081;-58
2022/02/05 10:57:33;;;;;;;12.32;2.13;;;;;;;10.48;51.48;102037.22;4977208;28;20441;-57
2022/02/05 11:05:50;;;;;;;11.73;2.50;;;;;;;10.68;52.06;102042.16;4969808;28;20105;-58
2022/02/05 11:08:18;;;;;;;12.82;2.17;;;;;;;10.76;52.63;102031.16;4985229;28;20052;-58
2022/02/05 11:18:56;;;;;;;;;;;;;;;10.78;52.42;102026.88;4977534;28;20112;-57
2022/02/05 11:21:25;;;;;;;11.30;2.58;;;;;;;10.74;52.71;102026.72;4987432;28;20129;-60
2022/02/05 11:23:58;;;;;;;11.50;2.22;;;;;;;10.82;52.53;102023.50;4975638;28;20034;-58
2022/02/05 11:26:24;;;;;;;15.43;2.10;;;;;;;10.89;53.06;102020.25;4974213;28;20045;-60
2022/02/05 11:28:59;;;;;;;13.75;2.03;;;;;;;10.87;52.63;102003.66;4964657;28;20669;-59
2022/02/05 11:31:32;;;;;;;15.10;2.08;;;;;;;11.03;52.50;101997.19;4964028;28;20294;-60
2022/02/05 11:34:24;;;;;;;14.27;2.08;;;;;;;11.16;52.36;102004.50;4963136;28;20042;-57
2022/02/05 11:37:02;;;;;;;10.07;1.80;;;;;;;11.21;52.16;102002.06;4988241;28;20053;-58
2022/02/05 11:39:27;;;;;;;11.32;1.90;;;;;;;11.23;51.85;101998.63;4974950;28;20164;-59
2022/02/05 11:41:53;;;;;;;14.38;2.08;;;;;;;11.43;52.02;102008.75;4981893;28;20524;-60
2022/02/05 11:44:27;;;;;;;11.60;2.00;;;;;;;11.50;51.27;102008.09;4974400;28;20053;-57
2022/02/05 11:47:08;;;;;;;11.07;1.70;;;;;;;11.45;50.63;101999.25;4974941;28;20116;-58
2022/02/05 11:49:51;;;;;;;11.30;2.15;;;;;;;11.36;50.57;101999.84;4970727;28;20053;-58
2022/02/05 11:52:35;;;;;;;13.20;2.20;;;;;;;11.33;50.93;101998.06;4981953;28;20045;-57
2022/02/05 11:55:03;;;;;;;12.07;2.00;;;;;;;10.99;51.76;101993.59;4975801;28;20050;-59
2022/02/05 11:57:45;;;;;;;12.55;2.10;;;;;;;11.04;51.35;101991.09;4976355;28;20113;-59
2022/02/05 12:00:18;;;;;;;18.10;2.25;;;;;;;11.18;51.40;101988.91;4977922;28;20061;-59
2022/02/05 12:02:54;;;;;;;11.07;2.07;;;;;;;11.04;51.13;101980.66;4971082;28;20054;-59
2022/02/05 12:05:28;;;;;;;12.05;1.80;;;;;;;11.06;51.81;101968.56;4983847;28;20595;-60
2022/02/05 12:08:06;;;;;;;11.75;2.20;;;;;;;11.31;51.65;101968.41;4958167;28;20520;-58
2022/02/05 12:10:39;;;;;;;12.35;2.35;;;;;;;11.37;51.70;101971.19;4972839;28;20050;-59
2022/02/05 12:13:25;;;;;;;14.25;2.30;;;;;;;11.32;51.37;101964.06;4977108;28;20356;-60
2022/02/05 12:16:00;;;;;;;9.40;1.92;;;;;;;11.29;51.68;101958.75;4976877;28;20169;-58
2022/02/05 12:18:27;;;;;;;13.82;2.20;;;;;;;11.24;52.12;101955.13;4960785;28;20045;-59
2022/02/05 12:20:54;;;;;;;12.13;2.85;;;;;;;11.45;52.06;101954.84;4979500;28;20046;-58
2022/02/05 12:26:08;;;;;;;17.17;2.67;;;;;;;11.14;53.05;101945.28;4977099;28;20064;-57
2022/02/05 12:28:42;;;;;;;20.33;2.78;;;;;;;11.28;53.00;101952.66;4964066;28;20050;-59
2022/02/05 12:31:16;;;;;;;16.52;2.08;;;;;;;11.19;53.00;101952.41;4963703;28;20191;-59
2022/02/05 12:33:43;;;;;;;11.18;2.40;;;;;;;11.32;53.42;101946.69;4980796;28;20481;-56
2022/02/05 12:36:09;;;;;;;12.23;2.00;;;;;;;11.35;53.06;101938.91;4980204;28;20046;-57
2022/02/05 12:38:42;;;;;;;10.57;2.10;;;;;;;11.52;52.67;101942.00;4972798;28;20053;-58
2022/02/05 12:41:14;;;;;;;16.45;2.30;;;;;;;11.46;52.46;101944.47;4978387;28;20076;-57
2022/02/05 12:43:53;;;;;;;11.63;1.80;;;;;;;11.35;52.08;101951.09;4960153;28;20084;-58
2022/02/05 12:46:21;;;;;;;10.15;1.90;;;;;;;11.42;51.20;101932.16;4964663;28;20399;-57
2022/02/05 12:48:51;;;;;;;12.95;2.00;;;;;;;11.36;51.59;101942.41;4961932;28;20530;-59
2022/02/05 12:51:17;;;;;;;14.20;1.90;;;;;;;11.23;52.15;101946.41;4977510;28;20041;-59
2022/02/05 12:53:43;;;;;;;13.20;2.15;;;;;;;11.04;52.61;101943.28;4975095;28;20061;-58
2022/02/05 12:56:14;;;;;;;17.98;2.17;;;;;;;11.11;52.31;101929.53;4980912;28;20041;-59
2022/02/05 12:59:04;;;;;;;15.00;2.17;;;;;;;11.23;52.28;101928.16;4971150;28;20241;-59
2022/02/05 13:01:31;;;;;;;9.13;2.05;;;;;;;11.29;52.65;101917.88;4979825;28;20085;-58
2022/02/05 13:04:18;;;;;;;14.57;2.58;;;;;;;11.14;53.07;101927.91;4968838;28;20147;-58
2022/02/05 13:06:43;;;;;;;16.67;2.33;;;;;;;11.18;53.21;101910.59;4959620;28;20314;-58
2022/02/05 13:09:20;;;;;;;14.32;2.05;;;;;;;11.23;52.65;101906.38;4961347;28;20034;-58
2022/02/05 13:11:52;;;;;;;10.25;2.03;;;;;;;11.26;52.43;101912.59;4978465;28;20104;-58
2022/02/05 13:14:18;;;;;;;15.02;2.13;;;;;;;11.12;53.39;101906.09;4954853;28;20137;-57
2022/02/05 13:16:46;;;;;;;10.85;2.10;;;;;;;10.99;52.96;101907.47;4972761;28;20042;-57
2022/02/05 13:19:23;;;;;;;18.00;2.28;;;;;;;11.14;52.67;101896.59;4978220;28;20052;-58
2022/02/05 13:28:00;;;;;;;10.85;2.05;;;;;;;11.38;52.58;101888.53;4976308;28;20049;-59
2022/02/05 13:35:59;;;;;;;13.55;1.98;;;;;;;11.60;52.01;101874.28;4982967;28;20627;-58
2022/02/05 13:38:27;;;;;;;12.10;2.00;;;;;;;11.32;52.39;101868.38;4971241;28;20046;-58
2022/02/05 13:41:03;;;;;;;11.23;2.15;;;;;;;11.56;52.01;101867.22;4980919;28;20049;-58
2022/02/05 13:43:42;;;;;;;11.48;1.65;;;;;;;11.60;52.61;101853.38;4978634;28;20051;-59
2022/02/05 13:46:14;;;;;;;20.05;2.58;;;;;;;11.48;52.73;101871.34;4981958;28;20410;-58
2022/02/05 13:48:40;;;;;;;10.20;1.90;;;;;;;11.65;52.42;101849.16;4972603;28;20687;-58
2022/02/05 13:51:06;;;;;;;14.73;2.55;;;;;;;11.86;51.93;101859.28;4973495;28;20064;-58
2022/02/05 13:53:32;;;;;;;15.07;2.10;;;;;;;11.62;52.55;101838.66;4964431;28;20173;-59
2022/02/05 13:56:04;;;;;;;13.18;2.10;;;;;;;11.69;52.29;101841.44;4984073;28;20045;-58
2022/02/05 13:58:37;;;;;;;16.55;1.85;;;;;;;11.50;52.69;101828.78;4967000;28;20189;-59
2022/02/05 14:01:03;;;;;;;13.13;2.10;;;;;;;11.56;52.98;101846.34;4982805;28;20414;-59
2022/02/05 14:03:40;;;;;;;13.23;2.08;;;;;;;11.50;53.13;101843.56;4979190;28;20112;-58
2022/02/05 14:06:10;;;;;;;14.25;2.42;;;;;;;11.25;54.16;101836.84;4967950;28;20541;-57
2022/02/05 14:08:46;;;;;;;10.27;2.83;;;;;;;11.29;54.10;101828.22;4957875;28;20092;-58